Time;durP1;ratioP1;P1;durP2;ratioP2;P2;SDS_P1;SDS_P2;PMS_P1;PMS_P2;Temp;Humidity;BMP_temperature;BMP_pressure;BME280_temperature;BME280_humidity;BME280_pressure;Samples;Min_cycle;Max_cycle;Signal;HPM_P1;HPM_P2
2024/01/04 00:00:30;;;;;;;;;;;6.70;100.00;;;;;;6297016;22;20557;-67
2024/01/04 00:02:57;;;;;;;;;;;6.70;100.00;;;;;;6295977;22;19954;-67
2024/01/04 00:05:24;;;;;;;;;;;6.70;100.00;;;;;;6296867;22;19940;-67
2024/01/04 00:07:51;;;;;;;;;;;6.70;100.00;;;;;;6296161;22;19934;-67
2024/01/04 00:10:18;;;;;;;;;;;6.70;100.00;;;;;;6269087;22;20610;-67
2024/01/04 00:16:13;;;;;;;;;;;6.60;100.00;;;;;;6292634;22;20001;-69
2024/01/04 00:18:40;;;;;;;;;;;6.60;100.00;;;;;;6267366;22;19943;-69
2024/01/04 00:21:10;;;;;;;;;;;6.60;100.00;;;;;;6293785;22;20226;-70
2024/01/04 00:23:37;;;;;;;;;;;6.60;100.00;;;;;;6294246;22;20339;-70
2024/01/04 00:26:04;;;;;;;;;;;6.60;100.00;;;;;;6294307;22;19919;-70
2024/01/04 00:28:31;;;;;;;;;;;6.50;100.00;;;;;;6294179;22;19942;-70
2024/01/04 00:30:57;;;;;;;;;;;6.50;100.00;;;;;;6267215;22;19926;-71
2024/01/04 00:33:24;;;;;;;;;;;6.50;100.00;;;;;;6294573;22;19950;-71
2024/01/04 00:35:51;;;;;;;;;;;6.40;100.00;;;;;;6293154;22;20266;-70
2024/01/04 00:38:18;;;;;;;;;;;6.40;100.00;;;;;;6266416;22;19925;-70
2024/01/04 00:40:45;;;;;;;;;;;6.30;100.00;;;;;;6293680;22;20540;-70
2024/01/04 00:43:11;;;;;;;;;;;6.30;100.00;;;;;;6292415;22;19926;-69
2024/01/04 00:45:38;;;;;;;;;;;6.30;100.00;;;;;;6294235;22;19918;-70
2024/01/04 00:48:05;;;;;;;;;;;6.20;100.00;;;;;;6295049;22;19930;-70
2024/01/04 00:50:32;;;;;;;;;;;6.20;100.00;;;;;;6294747;22;19984;-70
2024/01/04 00:53:01;;;;;;;;;;;6.20;100.00;;;;;;6293951;22;19925;-70
2024/01/04 00:55:35;;;;;;;;;;;6.20;100.00;;;;;;6269547;22;19918;-70
2024/01/04 00:58:03;;;;;;;;;;;6.10;100.00;;;;;;6294563;22;20331;-71
2024/01/04 01:00:31;;;;;;;;;;;6.10;100.00;;;;;;6294088;22;20329;-70
2024/01/04 01:02:58;;;;;;;;;;;6.10;100.00;;;;;;6266635;22;19981;-70
2024/01/04 01:05:25;;;;;;;;;;;6.10;100.00;;;;;;6295142;22;19925;-70
2024/01/04 01:07:52;;;;;;;;;;;6.10;100.00;;;;;;6267375;22;19922;-70
2024/01/04 01:10:19;;;;;;;;;;;6.10;100.00;;;;;;6267589;22;20243;-70
2024/01/04 01:12:46;;;;;;;;;;;6.00;100.00;;;;;;6294835;22;19919;-70
2024/01/04 01:15:13;;;;;;;;;;;6.00;100.00;;;;;;6247678;22;1135337;-69
2024/01/04 01:17:39;;;;;;;;;;;6.00;100.00;;;;;;6268682;22;19949;-71
2024/01/04 01:20:07;;;;;;;;;;;5.90;100.00;;;;;;6297290;22;19919;-70
2024/01/04 01:22:34;;;;;;;;;;;5.90;100.00;;;;;;6297689;22;19919;-70
2024/01/04 01:25:00;;;;;;;;;;;5.90;100.00;;;;;;6297067;22;19919;-70
2024/01/04 01:27:27;;;;;;;;;;;5.90;100.00;;;;;;6297767;22;20493;-70
2024/01/04 01:29:54;;;;;;;;;;;5.90;100.00;;;;;;6298188;22;19923;-70
2024/01/04 01:32:21;;;;;;;;;;;6.00;100.00;;;;;;6298326;22;19915;-70
2024/01/04 01:34:47;;;;;;;;;;;6.00;100.00;;;;;;6296437;22;20002;-70
2024/01/04 01:37:15;;;;;;;;;;;6.00;100.00;;;;;;6270339;22;19918;-70
2024/01/04 01:39:41;;;;;;;;;;;6.00;100.00;;;;;;6270508;22;19918;-70
2024/01/04 01:42:08;;;;;;;;;;;6.00;100.00;;;;;;6296428;22;19919;-70
2024/01/04 01:44:35;;;;;;;;;;;6.00;100.00;;;;;;6298050;22;19918;-71
2024/01/04 01:47:02;;;;;;;;;;;6.00;100.00;;;;;;6270613;22;20001;-70
2024/01/04 01:49:29;;;;;;;;;;;6.10;100.00;;;;;;6297724;22;19926;-71
2024/01/04 01:51:56;;;;;;;;;;;6.10;100.00;;;;;;6299223;22;19923;-67
2024/01/04 01:54:23;;;;;;;;;;;6.10;100.00;;;;;;6297753;22;20582;-67
2024/01/04 01:56:50;;;;;;;;;;;6.10;100.00;;;;;;6297349;22;19926;-67
2024/01/04 01:59:17;;;;;;;;;;;6.10;100.00;;;;;;6297700;22;19990;-67
2024/01/04 02:01:53;;;;;;;;;;;6.10;100.00;;;;;;6297223;22;20002;-67
2024/01/04 02:04:19;;;;;;;;;;;6.10;100.00;;;;;;6296572;22;19934;-67
2024/01/04 02:06:46;;;;;;;;;;;6.10;100.00;;;;;;6297743;22;19923;-68
2024/01/04 02:09:13;;;;;;;;;;;6.10;100.00;;;;;;6297355;22;19925;-67
2024/01/04 02:11:40;;;;;;;;;;;6.10;100.00;;;;;;6269679;22;19923;-67
2024/01/04 02:14:07;;;;;;;;;;;6.10;100.00;;;;;;6297650;22;19932;-67
2024/01/04 02:16:33;;;;;;;;;;;6.10;100.00;;;;;;6298036;22;19919;-67
2024/01/04 02:19:00;;;;;;;;;;;6.10;100.00;;;;;;6269711;22;20283;-67
2024/01/04 02:21:27;;;;;;;;;;;6.10;100.00;;;;;;6297211;22;19923;-67
2024/01/04 02:23:54;;;;;;;;;;;6.10;100.00;;;;;;6297538;22;20313;-67
2024/01/04 02:26:21;;;;;;;;;;;6.10;100.00;;;;;;6296686;22;19976;-67
2024/01/04 02:28:49;;;;;;;;;;;6.00;100.00;;;;;;6296585;22;19918;-67
2024/01/04 02:31:15;;;;;;;;;;;6.00;100.00;;;;;;6269512;22;20640;-67
2024/01/04 02:33:42;;;;;;;;;;;5.90;100.00;;;;;;6297617;22;19958;-67
2024/01/04 02:36:10;;;;;;;;;;;5.80;100.00;;;;;;6268913;22;19988;-67
2024/01/04 02:38:36;;;;;;;;;;;5.70;100.00;;;;;;6297277;22;19942;-67
2024/01/04 02:41:03;;;;;;;;;;;5.60;100.00;;;;;;6297476;22;19942;-67
2024/01/04 02:43:30;;;;;;;;;;;5.60;100.00;;;;;;6269966;22;19922;-67
2024/01/04 02:45:57;;;;;;;;;;;5.50;100.00;;;;;;6296844;22;19959;-67
2024/01/04 02:48:23;;;;;;;;;;;5.40;100.00;;;;;;6296709;22;19926;-67
2024/01/04 02:50:50;;;;;;;;;;;5.30;100.00;;;;;;6296523;22;19922;-67
2024/01/04 02:53:17;;;;;;;;;;;5.20;100.00;;;;;;6296164;22;19925;-67
2024/01/04 02:55:44;;;;;;;;;;;5.10;100.00;;;;;;6270031;22;19919;-67
2024/01/04 02:58:11;;;;;;;;;;;5.10;100.00;;;;;;6269776;22;20588;-67
2024/01/04 03:00:37;;;;;;;;;;;5.00;100.00;;;;;;6296514;22;19918;-67
2024/01/04 03:03:04;;;;;;;;;;;5.00;100.00;;;;;;6296879;22;20251;-67
2024/01/04 03:05:31;;;;;;;;;;;4.90;100.00;;;;;;6296603;22;19929;-67
2024/01/04 03:07:58;;;;;;;;;;;4.90;100.00;;;;;;6295842;22;19968;-67
2024/01/04 03:10:25;;;;;;;;;;;4.90;100.00;;;;;;6269002;22;19923;-67
2024/01/04 03:12:52;;;;;;;;;;;4.80;100.00;;;;;;6296318;22;20581;-67
2024/01/04 03:15:18;;;;;;;;;;;4.80;100.00;;;;;;6268825;22;19919;-67
2024/01/04 03:17:45;;;;;;;;;;;4.70;100.00;;;;;;6295602;22;19918;-67
2024/01/04 03:20:12;;;;;;;;;;;4.70;100.00;;;;;;6295632;22;19933;-67
2024/01/04 03:22:39;;;;;;;;;;;4.70;100.00;;;;;;6295108;22;19923;-68
2024/01/04 03:25:09;;;;;;;;;;;4.70;100.00;;;;;;6295431;22;19927;-67
2024/01/04 03:27:36;;;;;;;;;;;4.70;100.00;;;;;;6295917;22;19923;-68
2024/01/04 03:30:03;;;;;;;;;;;4.60;100.00;;;;;;6295195;22;19922;-67
2024/01/04 03:32:30;;;;;;;;;;;4.60;100.00;;;;;;6294501;22;20312;-68
2024/01/04 03:34:57;;;;;;;;;;;4.60;100.00;;;;;;6268445;22;19993;-67
2024/01/04 03:37:24;;;;;;;;;;;4.50;100.00;;;;;;6296856;22;19919;-68
2024/01/04 03:39:51;;;;;;;;;;;4.50;100.00;;;;;;6296287;22;20399;-68
2024/01/04 03:42:17;;;;;;;;;;;4.50;100.00;;;;;;6296437;22;19923;-67
2024/01/04 03:44:44;;;;;;;;;;;4.50;100.00;;;;;;6296550;22;19942;-67
2024/01/04 03:47:11;;;;;;;;;;;4.50;100.00;;;;;;6269065;22;19922;-68
2024/01/04 03:49:38;;;;;;;;;;;4.50;100.00;;;;;;6268955;22;19926;-68
2024/01/04 03:52:05;;;;;;;;;;;4.40;100.00;;;;;;6296351;22;19918;-68
2024/01/04 03:54:32;;;;;;;;;;;4.40;100.00;;;;;;6295964;22;20528;-68
2024/01/04 03:56:58;;;;;;;;;;;4.40;100.00;;;;;;6296270;22;19985;-68
2024/01/04 03:59:25;;;;;;;;;;;4.40;100.00;;;;;;6268719;22;20647;-68
2024/01/04 04:01:52;;;;;;;;;;;4.40;100.00;;;;;;6295135;22;19918;-67
2024/01/04 04:04:19;;;;;;;;;;;4.40;100.00;;;;;;6267938;22;19919;-67
2024/01/04 04:06:46;;;;;;;;;;;4.40;100.00;;;;;;6295870;22;19928;-68
2024/01/04 04:09:13;;;;;;;;;;;4.40;100.00;;;;;;6269555;22;20020;-68
2024/01/04 04:11:40;;;;;;;;;;;4.40;100.00;;;;;;6268678;22;20622;-68
2024/01/04 04:14:09;;;;;;;;;;;4.40;100.00;;;;;;6295903;22;19919;-68
2024/01/04 04:16:40;;;;;;;;;;;4.40;100.00;;;;;;6269161;22;19922;-68
2024/01/04 04:19:07;;;;;;;;;;;4.40;100.00;;;;;;6295593;22;19988;-68
2024/01/04 04:21:34;;;;;;;;;;;4.40;100.00;;;;;;6295725;22;19922;-67
2024/01/04 04:24:01;;;;;;;;;;;4.40;100.00;;;;;;6296676;22;19972;-68
2024/01/04 04:26:28;;;;;;;;;;;4.40;100.00;;;;;;6295892;22;19945;-68
2024/01/04 04:28:55;;;;;;;;;;;4.40;100.00;;;;;;6294764;22;20316;-68
2024/01/04 04:31:22;;;;;;;;;;;4.40;100.00;;;;;;6295919;22;19922;-68
2024/01/04 04:33:49;;;;;;;;;;;4.40;100.00;;;;;;6296341;22;19997;-68
2024/01/04 04:36:16;;;;;;;;;;;4.40;100.00;;;;;;6295345;22;19918;-68
2024/01/04 04:38:43;;;;;;;;;;;4.40;100.00;;;;;;6295637;22;19922;-68
2024/01/04 04:41:10;;;;;;;;;;;4.30;100.00;;;;;;6295600;22;20560;-68
2024/01/04 04:43:36;;;;;;;;;;;4.30;100.00;;;;;;6293862;22;19968;-68
2024/01/04 04:46:09;;;;;;;;;;;4.30;100.00;;;;;;6295595;22;19919;-68
2024/01/04 04:48:39;;;;;;;;;;;4.20;100.00;;;;;;6296203;22;19919;-68
2024/01/04 04:51:06;;;;;;;;;;;4.20;100.00;;;;;;6295967;22;19993;-68
2024/01/04 04:53:33;;;;;;;;;;;4.20;100.00;;;;;;6295240;22;19925;-68
2024/01/04 04:55:59;;;;;;;;;;;4.10;100.00;;;;;;6270168;22;19919;-68
2024/01/04 04:58:27;;;;;;;;;;;4.10;100.00;;;;;;6297382;22;19919;-68
2024/01/04 05:00:54;;;;;;;;;;;4.10;100.00;;;;;;6297491;22;19919;-68
2024/01/04 05:03:21;;;;;;;;;;;4.00;100.00;;;;;;6298363;22;20002;-68
2024/01/04 05:05:48;;;;;;;;;;;4.00;100.00;;;;;;6297618;22;19919;-68
2024/01/04 05:08:15;;;;;;;;;;;4.00;100.00;;;;;;6296738;22;19919;-68
2024/01/04 05:10:42;;;;;;;;;;;4.00;100.00;;;;;;6269471;22;20301;-68
2024/01/04 05:13:09;;;;;;;;;;;4.00;100.00;;;;;;6269475;22;19964;-68
2024/01/04 05:15:36;;;;;;;;;;;3.90;100.00;;;;;;6297051;22;20398;-68
2024/01/04 05:18:02;;;;;;;;;;;4.00;100.00;;;;;;6270332;22;19931;-68
2024/01/04 05:20:30;;;;;;;;;;;4.00;100.00;;;;;;6270880;22;20601;-67
2024/01/04 05:22:57;;;;;;;;;;;3.90;100.00;;;;;;6269896;22;20244;-67
2024/01/04 05:25:23;;;;;;;;;;;4.00;100.00;;;;;;6297113;22;19968;-67
2024/01/04 05:27:51;;;;;;;;;;;3.90;100.00;;;;;;6297353;22;19918;-67
2024/01/04 05:30:18;;;;;;;;;;;3.90;100.00;;;;;;6297528;22;20394;-67
2024/01/04 05:32:45;;;;;;;;;;;3.90;100.00;;;;;;6296939;22;20324;-67
2024/01/04 05:35:12;;;;;;;;;;;3.80;100.00;;;;;;6297631;22;20642;-67
2024/01/04 05:37:39;;;;;;;;;;;3.80;100.00;;;;;;6270315;22;19918;-67
2024/01/04 05:40:06;;;;;;;;;;;3.60;100.00;;;;;;6296483;22;20325;-67
2024/01/04 05:42:33;;;;;;;;;;;3.60;100.00;;;;;;6297816;22;20024;-67
2024/01/04 05:45:00;;;;;;;;;;;3.50;100.00;;;;;;6296934;22;19956;-67
2024/01/04 05:47:26;;;;;;;;;;;3.40;100.00;;;;;;6269096;22;19968;-67
2024/01/04 05:49:53;;;;;;;;;;;3.40;100.00;;;;;;6297274;22;19925;-67
2024/01/04 05:52:20;;;;;;;;;;;3.40;100.00;;;;;;6297138;22;20338;-67
2024/01/04 05:54:47;;;;;;;;;;;3.40;100.00;;;;;;6297524;22;19988;-67
2024/01/04 05:57:13;;;;;;;;;;;3.30;100.00;;;;;;6296707;22;19969;-66
2024/01/04 05:59:40;;;;;;;;;;;3.30;100.00;;;;;;6297512;22;20228;-67
2024/01/04 06:02:07;;;;;;;;;;;3.30;100.00;;;;;;6296599;22;20388;-66
2024/01/04 06:04:34;;;;;;;;;;;3.30;100.00;;;;;;6296220;22;19942;-66
2024/01/04 06:07:00;;;;;;;;;;;3.30;100.00;;;;;;6268536;22;19965;-66
2024/01/04 06:09:27;;;;;;;;;;;3.20;100.00;;;;;;6269760;22;19956;-66
2024/01/04 06:11:54;;;;;;;;;;;3.20;100.00;;;;;;6296407;22;20530;-66
2024/01/04 06:14:21;;;;;;;;;;;3.20;100.00;;;;;;6296681;22;19949;-66
2024/01/04 06:16:48;;;;;;;;;;;3.20;100.00;;;;;;6296712;22;20575;-66
2024/01/04 06:19:14;;;;;;;;;;;3.20;100.00;;;;;;6270092;22;19996;-67
2024/01/04 06:21:41;;;;;;;;;;;3.10;100.00;;;;;;6302163;22;19972;-69
2024/01/04 06:24:08;;;;;;;;;;;3.10;100.00;;;;;;6297076;22;19972;-70
2024/01/04 06:26:35;;;;;;;;;;;3.10;100.00;;;;;;6297295;22;19919;-71
2024/01/04 06:29:02;;;;;;;;;;;3.00;100.00;;;;;;6269228;22;20415;-71
2024/01/04 06:31:29;;;;;;;;;;;3.00;100.00;;;;;;6296827;22;20470;-71
2024/01/04 06:33:56;;;;;;;;;;;3.00;100.00;;;;;;6268039;22;19948;-71
2024/01/04 06:36:23;;;;;;;;;;;3.00;100.00;;;;;;6294837;22;20351;-71
2024/01/04 06:38:50;;;;;;;;;;;3.00;100.00;;;;;;6296131;22;19960;-70
2024/01/04 06:41:19;;;;;;;;;;;3.00;100.00;;;;;;6296415;22;19972;-70
2024/01/04 06:43:46;;;;;;;;;;;3.00;100.00;;;;;;6296033;22;19918;-70
2024/01/04 06:46:14;;;;;;;;;;;3.00;100.00;;;;;;6296723;22;19925;-70
2024/01/04 06:48:41;;;;;;;;;;;3.00;100.00;;;;;;6269757;22;20591;-70
2024/01/04 06:51:09;;;;;;;;;;;2.90;100.00;;;;;;6270205;22;19945;-70
2024/01/04 06:53:36;;;;;;;;;;;2.90;100.00;;;;;;6297352;22;20045;-70
2024/01/04 06:56:03;;;;;;;;;;;2.80;100.00;;;;;;6297742;22;20014;-70
2024/01/04 06:58:30;;;;;;;;;;;2.80;100.00;;;;;;6297522;22;19919;-70
2024/01/04 07:00:57;;;;;;;;;;;2.70;100.00;;;;;;6296763;22;19999;-70
2024/01/04 07:03:24;;;;;;;;;;;2.60;100.00;;;;;;6297201;22;20061;-70
2024/01/04 07:05:51;;;;;;;;;;;2.60;100.00;;;;;;6296976;22;20473;-70
2024/01/04 07:08:18;;;;;;;;;;;2.50;100.00;;;;;;6296560;22;19980;-71
2024/01/04 07:10:45;;;;;;;;;;;2.50;100.00;;;;;;6297541;22;19930;-70
2024/01/04 07:13:12;;;;;;;;;;;2.50;100.00;;;;;;6270041;22;19939;-70
2024/01/04 07:15:39;;;;;;;;;;;2.50;100.00;;;;;;6296453;22;19922;-71
2024/01/04 07:18:06;;;;;;;;;;;2.40;100.00;;;;;;6296840;22;20321;-71
2024/01/04 07:20:33;;;;;;;;;;;2.40;100.00;;;;;;6296654;22;19919;-70
2024/01/04 07:23:00;;;;;;;;;;;2.40;100.00;;;;;;6250663;22;19919;-70
2024/01/04 07:25:27;;;;;;;;;;;2.30;100.00;;;;;;6265835;22;19919;-70
2024/01/04 07:27:54;;;;;;;;;;;2.30;100.00;;;;;;6239441;22;19923;-70
2024/01/04 07:30:21;;;;;;;;;;;2.30;100.00;;;;;;6265747;22;19919;-70
2024/01/04 07:32:48;;;;;;;;;;;2.40;100.00;;;;;;6238120;22;19919;-70
2024/01/04 07:35:16;;;;;;;;;;;2.30;100.00;;;;;;6238827;22;20276;-71
2024/01/04 07:37:44;;;;;;;;;;;2.30;100.00;;;;;;6266177;22;19989;-70
2024/01/04 07:40:11;;;;;;;;;;;2.30;100.00;;;;;;6265487;22;19919;-71
2024/01/04 07:42:39;;;;;;;;;;;2.30;100.00;;;;;;6266154;22;19965;-70
2024/01/04 07:45:06;;;;;;;;;;;2.30;100.00;;;;;;6238997;22;19927;-70
2024/01/04 07:47:36;;;;;;;;;;;2.30;100.00;;;;;;6265579;22;19919;-70
2024/01/04 07:50:04;;;;;;;;;;;2.30;100.00;;;;;;6238365;22;19999;-70
2024/01/04 07:52:31;;;;;;;;;;;2.30;100.00;;;;;;6265377;22;20356;-71
2024/01/04 07:54:58;;;;;;;;;;;2.30;100.00;;;;;;6238367;22;19918;-71
2024/01/04 07:57:28;;;;;;;;;;;2.30;100.00;;;;;;6239373;22;19925;-70
2024/01/04 07:59:55;;;;;;;;;;;2.30;100.00;;;;;;6265648;22;20448;-70
2024/01/04 08:02:23;;;;;;;;;;;2.30;100.00;;;;;;6265604;22;20007;-70
2024/01/04 08:04:49;;;;;;;;;;;2.20;100.00;;;;;;6266105;22;20379;-70
2024/01/04 08:07:18;;;;;;;;;;;2.20;100.00;;;;;;6265763;22;19919;-71
2024/01/04 08:09:45;;;;;;;;;;;2.30;100.00;;;;;;6238933;22;19974;-71
2024/01/04 08:12:12;;;;;;;;;;;2.30;100.00;;;;;;6265695;22;20193;-70
2024/01/04 08:14:39;;;;;;;;;;;2.30;100.00;;;;;;6265868;22;19919;-70
2024/01/04 08:17:06;;;;;;;;;;;2.30;100.00;;;;;;6265689;22;19930;-70
2024/01/04 08:19:33;;;;;;;;;;;2.30;100.00;;;;;;6265722;22;19926;-70
2024/01/04 08:22:00;;;;;;;;;;;2.30;100.00;;;;;;6271799;22;19985;-70
2024/01/04 08:24:26;;;;;;;;;;;2.30;100.00;;;;;;6297345;22;20011;-71
2024/01/04 08:26:53;;;;;;;;;;;2.30;100.00;;;;;;6296695;22;19925;-70
2024/01/04 08:29:20;;;;;;;;;;;2.30;100.00;;;;;;6297299;22;20001;-70
2024/01/04 08:31:47;;;;;;;;;;;2.20;100.00;;;;;;6272539;22;20013;-70
2024/01/04 08:34:14;;;;;;;;;;;2.20;100.00;;;;;;6271267;22;19963;-70
2024/01/04 08:36:41;;;;;;;;;;;2.30;100.00;;;;;;6271917;22;19993;-70
2024/01/04 08:39:07;;;;;;;;;;;2.20;100.00;;;;;;6299293;22;19919;-70
2024/01/04 08:41:34;;;;;;;;;;;2.10;100.00;;;;;;6298728;22;19985;-70
2024/01/04 08:44:01;;;;;;;;;;;2.10;100.00;;;;;;6271151;22;19996;-71
2024/01/04 08:46:28;;;;;;;;;;;2.10;100.00;;;;;;6298646;22;19919;-70
2024/01/04 08:48:54;;;;;;;;;;;2.10;100.00;;;;;;6298774;22;19919;-70
2024/01/04 08:51:21;;;;;;;;;;;2.10;100.00;;;;;;6298357;22;19942;-70
2024/01/04 08:53:49;;;;;;;;;;;2.20;100.00;;;;;;6271850;22;19919;-70
2024/01/04 08:56:19;;;;;;;;;;;2.20;100.00;;;;;;6299506;22;19919;-70
2024/01/04 08:58:46;;;;;;;;;;;2.20;100.00;;;;;;6299670;22;20122;-71
2024/01/04 09:01:13;;;;;;;;;;;2.20;100.00;;;;;;6299139;22;19954;-71
2024/01/04 09:03:40;;;;;;;;;;;2.10;100.00;;;;;;6299650;22;19919;-70
2024/01/04 09:06:08;;;;;;;;;;;2.20;100.00;;;;;;6298323;22;20291;-70
2024/01/04 09:08:35;;;;;;;;;;;2.20;100.00;;;;;;6298093;22;20418;-70
2024/01/04 09:11:03;;;;;;;;;;;2.10;100.00;;;;;;6298727;22;19923;-70
2024/01/04 09:13:30;;;;;;;;;;;2.20;100.00;;;;;;6299047;22;19986;-70
2024/01/04 09:15:58;;;;;;;;;;;2.20;100.00;;;;;;6271174;22;19918;-70
2024/01/04 09:18:25;;;;;;;;;;;2.20;100.00;;;;;;6271608;22;19992;-70
2024/01/04 09:20:52;;;;;;;;;;;2.20;100.00;;;;;;6298840;22;19926;-70
2024/01/04 09:23:18;;;;;;;;;;;2.30;100.00;;;;;;6298196;22;19926;-69
2024/01/04 09:25:45;;;;;;;;;;;2.20;100.00;;;;;;6298388;22;20004;-70
2024/01/04 09:28:12;;;;;;;;;;;2.30;100.00;;;;;;6271141;22;19950;-70
2024/01/04 09:30:39;;;;;;;;;;;2.30;100.00;;;;;;6270856;22;19918;-70
2024/01/04 09:33:07;;;;;;;;;;;2.20;100.00;;;;;;6298275;22;20016;-71
2024/01/04 09:35:34;;;;;;;;;;;2.20;100.00;;;;;;6297801;22;19923;-70
2024/01/04 09:38:01;;;;;;;;;;;2.30;100.00;;;;;;6298021;22;20714;-71
2024/01/04 09:40:29;;;;;;;;;;;2.20;100.00;;;;;;6298099;22;19993;-71
2024/01/04 09:42:56;;;;;;;;;;;2.30;100.00;;;;;;6271951;22;19918;-71
2024/01/04 09:45:28;;;;;;;;;;;2.30;100.00;;;;;;6298386;22;19992;-71
2024/01/04 09:47:56;;;;;;;;;;;2.30;100.00;;;;;;6298696;22;19918;-71
2024/01/04 09:50:24;;;;;;;;;;;2.30;100.00;;;;;;6298426;22;19923;-70
2024/01/04 09:52:51;;;;;;;;;;;2.20;100.00;;;;;;6298581;22;19919;-71
2024/01/04 09:55:20;;;;;;;;;;;2.20;100.00;;;;;;6298125;22;20002;-71
2024/01/04 09:57:47;;;;;;;;;;;2.00;100.00;;;;;;6298156;22;19992;-71
2024/01/04 10:00:14;;;;;;;;;;;1.80;100.00;;;;;;6298875;22;19918;-71
2024/01/04 10:02:44;;;;;;;;;;;1.70;100.00;;;;;;6298612;22;19926;-70
2024/01/04 10:05:17;;;;;;;;;;;1.70;100.00;;;;;;6298400;22;20231;-71
2024/01/04 10:08:00;;;;;;;;;;;1.70;100.00;;;;;;6271338;22;20088;-71
2024/01/04 10:10:30;;;;;;;;;;;1.70;100.00;;;;;;6298654;22;19993;-71
2024/01/04 10:12:57;;;;;;;;;;;1.70;100.00;;;;;;6270942;22;19934;-71
2024/01/04 10:15:24;;;;;;;;;;;1.70;100.00;;;;;;6297767;22;19919;-71
2024/01/04 10:17:52;;;;;;;;;;;1.50;100.00;;;;;;6297785;22;19918;-70
2024/01/04 10:20:19;;;;;;;;;;;1.40;100.00;;;;;;6297807;22;19967;-71
2024/01/04 10:22:46;;;;;;;;;;;1.40;100.00;;;;;;6270440;22;19926;-71
2024/01/04 10:25:18;;;;;;;;;;;1.30;100.00;;;;;;6298178;22;20228;-70
2024/01/04 10:27:58;;;;;;;;;;;1.20;100.00;;;;;;6270661;22;19953;-72
2024/01/04 10:30:26;;;;;;;;;;;1.30;100.00;;;;;;6298026;22;19954;-71
2024/01/04 10:32:54;;;;;;;;;;;1.10;100.00;;;;;;6298158;22;19982;-70
2024/01/04 10:35:27;;;;;;;;;;;1.10;100.00;;;;;;6296805;22;19919;-71
2024/01/04 10:37:58;;;;;;;;;;;1.00;100.00;;;;;;6269610;22;19915;-70
2024/01/04 10:40:25;;;;;;;;;;;1.00;100.00;;;;;;6297211;22;20609;-71
2024/01/04 10:42:57;;;;;;;;;;;0.90;100.00;;;;;;6270980;22;19919;-71
2024/01/04 10:45:27;;;;;;;;;;;0.90;100.00;;;;;;6297147;22;19914;-71
2024/01/04 10:47:55;;;;;;;;;;;1.00;100.00;;;;;;6269490;22;19973;-72
2024/01/04 10:50:25;;;;;;;;;;;1.00;100.00;;;;;;6297827;22;19925;-71
2024/01/04 10:52:53;;;;;;;;;;;0.90;100.00;;;;;;6269205;22;19918;-71
2024/01/04 10:55:20;;;;;;;;;;;0.80;100.00;;;;;;6268995;22;20450;-70
2024/01/04 10:57:49;;;;;;;;;;;0.80;100.00;;;;;;6296745;22;19969;-70
2024/01/04 11:00:17;;;;;;;;;;;0.70;100.00;;;;;;6270128;22;19988;-70
2024/01/04 11:02:44;;;;;;;;;;;0.80;100.00;;;;;;6297510;22;20357;-71
2024/01/04 11:05:12;;;;;;;;;;;0.80;100.00;;;;;;6296942;22;19926;-71
2024/01/04 11:07:39;;;;;;;;;;;0.80;100.00;;;;;;6297063;22;19982;-71
2024/01/04 11:10:09;;;;;;;;;;;0.80;100.00;;;;;;6270202;22;19919;-71
2024/01/04 11:12:37;;;;;;;;;;;0.80;100.00;;;;;;6297946;22;19926;-71
2024/01/04 11:15:04;;;;;;;;;;;0.80;100.00;;;;;;6297400;22;19972;-71
2024/01/04 11:17:48;;;;;;;;;;;0.70;100.00;;;;;;6298285;22;19919;-67
2024/01/04 11:20:20;;;;;;;;;;;0.70;100.00;;;;;;6297343;22;19958;-67
2024/01/04 11:22:56;;;;;;;;;;;0.60;100.00;;;;;;6269510;22;19997;-67
2024/01/04 11:25:35;;;;;;;;;;;0.70;100.00;;;;;;6270165;22;20480;-66
2024/01/04 11:28:03;;;;;;;;;;;0.70;100.00;;;;;;6270641;22;19922;-67
2024/01/04 11:30:31;;;;;;;;;;;0.70;100.00;;;;;;6270598;22;19919;-66
2024/01/04 11:32:59;;;;;;;;;;;0.80;100.00;;;;;;6270359;22;19969;-67
2024/01/04 11:35:26;;;;;;;;;;;0.90;100.00;;;;;;6297161;22;19923;-66
2024/01/04 11:37:53;;;;;;;;;;;0.90;100.00;;;;;;6297394;22;20243;-67
2024/01/04 11:40:29;;;;;;;;;;;0.90;100.00;;;;;;6296874;22;19918;-67
2024/01/04 11:42:56;;;;;;;;;;;0.90;100.00;;;;;;6297482;22;19931;-67
2024/01/04 11:45:24;;;;;;;;;;;0.80;100.00;;;;;;6297506;22;19926;-67
2024/01/04 11:47:52;;;;;;;;;;;0.80;100.00;;;;;;6296423;22;19918;-66
2024/01/04 11:50:23;;;;;;;;;;;0.80;100.00;;;;;;6296613;22;20001;-67
2024/01/04 11:52:50;;;;;;;;;;;0.90;100.00;;;;;;6297676;22;19919;-67
2024/01/04 11:55:28;;;;;;;;;;;0.90;100.00;;;;;;6269295;22;19923;-67
2024/01/04 11:58:14;;;;;;;;;;;0.90;100.00;;;;;;6297460;22;19988;-67
2024/01/04 12:00:47;;;;;;;;;;;0.80;100.00;;;;;;6269764;22;19926;-68
2024/01/04 12:03:16;;;;;;;;;;;0.90;100.00;;;;;;6296949;22;19919;-67
2024/01/04 12:05:44;;;;;;;;;;;0.90;100.00;;;;;;6296984;22;19925;-66
2024/01/04 12:08:23;;;;;;;;;;;0.90;100.00;;;;;;6297753;22;19919;-67
2024/01/04 12:10:50;;;;;;;;;;;0.90;100.00;;;;;;6296664;22;19922;-67
2024/01/04 12:13:17;;;;;;;;;;;0.90;100.00;;;;;;6297361;22;20374;-66
2024/01/04 12:15:44;;;;;;;;;;;0.80;100.00;;;;;;6297382;22;19926;-67
2024/01/04 12:18:12;;;;;;;;;;;0.90;100.00;;;;;;6296886;22;19964;-66
2024/01/04 12:20:39;;;;;;;;;;;0.80;100.00;;;;;;6296505;22;19923;-67
2024/01/04 12:23:07;;;;;;;;;;;0.80;100.00;;;;;;6269518;22;19925;-67
2024/01/04 12:25:34;;;;;;;;;;;0.80;100.00;;;;;;6297287;22;19919;-66
2024/01/04 12:28:01;;;;;;;;;;;0.80;100.00;;;;;;6269069;22;19923;-66
2024/01/04 12:30:29;;;;;;;;;;;0.70;100.00;;;;;;6296848;22;19923;-67
2024/01/04 12:32:56;;;;;;;;;;;0.70;100.00;;;;;;6269908;22;19994;-67
2024/01/04 12:35:23;;;;;;;;;;;0.70;100.00;;;;;;6296853;22;19998;-67
2024/01/04 12:38:05;;;;;;;;;;;0.80;100.00;;;;;;6269866;22;19919;-67
2024/01/04 12:40:39;;;;;;;;;;;0.80;100.00;;;;;;6297634;22;19919;-67
2024/01/04 12:43:10;;;;;;;;;;;0.90;100.00;;;;;;6296946;22;19919;-67
2024/01/04 12:45:37;;;;;;;;;;;0.90;100.00;;;;;;6269320;22;19919;-67
2024/01/04 12:48:05;;;;;;;;;;;1.00;100.00;;;;;;6296931;22;19942;-67
2024/01/04 12:50:34;;;;;;;;;;;1.00;100.00;;;;;;6296261;22;19915;-67
2024/01/04 12:53:01;;;;;;;;;;;1.00;100.00;;;;;;6295901;22;19926;-67
2024/01/04 12:55:28;;;;;;;;;;;1.10;100.00;;;;;;6269618;22;19929;-67
2024/01/04 12:57:55;;;;;;;;;;;1.20;100.00;;;;;;6296917;22;19938;-67
2024/01/04 13:00:22;;;;;;;;;;;1.20;100.00;;;;;;6269251;22;19949;-67
2024/01/04 13:02:49;;;;;;;;;;;1.20;100.00;;;;;;6297037;22;19919;-67
2024/01/04 13:05:16;;;;;;;;;;;1.30;100.00;;;;;;6296920;22;19922;-66
2024/01/04 13:07:42;;;;;;;;;;;1.30;100.00;;;;;;6296179;22;19919;-67
2024/01/04 13:10:09;;;;;;;;;;;1.30;100.00;;;;;;6296872;22;19915;-67
2024/01/04 13:12:36;;;;;;;;;;;1.30;100.00;;;;;;6296807;22;19989;-67
2024/01/04 13:15:03;;;;;;;;;;;1.20;100.00;;;;;;6296908;22;19984;-67
2024/01/04 13:17:30;;;;;;;;;;;1.20;100.00;;;;;;6298086;22;20316;-67
2024/01/04 13:19:58;;;;;;;;;;;1.20;100.00;;;;;;6299357;22;19919;-67
2024/01/04 13:22:26;;;;;;;;;;;1.10;100.00;;;;;;6298927;22;19990;-66
2024/01/04 13:24:53;;;;;;;;;;;1.00;100.00;;;;;;6298393;22;19938;-67
2024/01/04 13:27:21;;;;;;;;;;;1.10;100.00;;;;;;6297760;22;20607;-67
2024/01/04 13:29:48;;;;;;;;;;;1.00;100.00;;;;;;6297726;22;19972;-67
2024/01/04 13:32:15;;;;;;;;;;;1.00;100.00;;;;;;6298111;22;19915;-66
2024/01/04 13:34:42;;;;;;;;;;;0.90;100.00;;;;;;6298836;22;19925;-66
2024/01/04 13:37:09;;;;;;;;;;;0.80;100.00;;;;;;6298161;22;19989;-68
2024/01/04 13:39:36;;;;;;;;;;;0.70;100.00;;;;;;6297217;22;20506;-67
2024/01/04 13:42:04;;;;;;;;;;;0.70;100.00;;;;;;6298517;22;19945;-68
2024/01/04 13:44:31;;;;;;;;;;;0.60;100.00;;;;;;6299042;22;19991;-67
2024/01/04 13:46:58;;;;;;;;;;;0.60;100.00;;;;;;6297941;22;19922;-67
2024/01/04 13:49:24;;;;;;;;;;;0.60;100.00;;;;;;6298256;22;19918;-67
2024/01/04 13:51:51;;;;;;;;;;;0.60;100.00;;;;;;6271061;22;19957;-67
2024/01/04 13:54:18;;;;;;;;;;;0.50;100.00;;;;;;6298755;22;19922;-67
2024/01/04 13:56:46;;;;;;;;;;;0.50;100.00;;;;;;6297763;22;20543;-67
2024/01/04 13:59:12;;;;;;;;;;;0.50;100.00;;;;;;6299082;22;19989;-67
2024/01/04 14:01:40;;;;;;;;;;;0.50;100.00;;;;;;6298990;22;19961;-67
2024/01/04 14:04:07;;;;;;;;;;;0.50;100.00;;;;;;6298226;22;19922;-67
2024/01/04 14:06:34;;;;;;;;;;;0.50;100.00;;;;;;6299346;22;19915;-67
2024/01/04 14:09:01;;;;;;;;;;;0.40;100.00;;;;;;6299056;22;20365;-67
2024/01/04 14:11:28;;;;;;;;;;;0.40;100.00;;;;;;6298386;22;19923;-67
2024/01/04 14:13:54;;;;;;;;;;;0.40;100.00;;;;;;6298186;22;19922;-67
2024/01/04 14:16:21;;;;;;;;;;;0.40;100.00;;;;;;6297419;22;19918;-67
2024/01/04 14:18:48;;;;;;;;;;;0.30;100.00;;;;;;6270327;22;19952;-67
2024/01/04 14:21:15;;;;;;;;;;;0.30;100.00;;;;;;6297364;22;19954;-67